Warspite, Canada
Current Conditions -  °F | °C
As of 5:00 PM on Friday 19 Dec 2014 (Local Time) from CYED Reporting Station
Overcast Overcast  
Wind Chill: 19°   Ceiling: 9000
Heat Index: 19°   Visibility: 5mi
Dew Point: 18°   Wind: 0mph
Humidity: 93%   Direction: NA
Pressure: 29.67"   Gusts: NA
Location:  54.09°N, 112.62°W
Report Text: CYED 200000Z AUTO 00000KT 5SM OVC090 M07/M08 A2967 RMK SLP094
Loading
Personal Weather Stations






























Interactive Weather Map New forecast layout! Learn more

10-Day Weather Forecast

Advertisements
Track Severe Weather on mobile